createdAt,value
2023-05-25T00:01:27.776Z,52.97
2023-05-25T00:03:54.203Z,52.87
2023-05-25T00:06:20.575Z,53.25
2023-05-25T00:08:46.900Z,52.69
2023-05-25T00:11:13.229Z,52.56
2023-05-25T00:13:39.540Z,51.94
2023-05-25T00:16:05.851Z,51.79
2023-05-25T00:18:32.189Z,51.49
2023-05-25T00:20:58.504Z,51.23
2023-05-25T00:23:24.815Z,50.92
2023-05-25T00:25:51.132Z,51.41
2023-05-25T00:28:17.461Z,52.35
2023-05-25T00:30:43.773Z,52.30
2023-05-25T00:33:10.179Z,51.81
2023-05-25T00:35:36.534Z,50.80
2023-05-25T00:38:02.841Z,51.14
2023-05-25T00:40:29.178Z,51.00
2023-05-25T00:42:55.502Z,51.66
2023-05-25T00:45:21.801Z,51.77
2023-05-25T00:47:48.149Z,51.14
2023-05-25T00:50:14.485Z,50.57
2023-05-25T00:52:40.801Z,50.66
2023-05-25T00:55:07.126Z,50.78
2023-05-25T00:57:33.445Z,50.90
2023-05-25T00:59:59.785Z,50.83
2023-05-25T01:02:26.187Z,51.56
2023-05-25T01:04:52.524Z,51.82
2023-05-25T01:07:18.827Z,52.59
2023-05-25T01:09:45.155Z,53.11
2023-05-25T01:12:11.476Z,52.64
2023-05-25T01:14:37.805Z,52.40
2023-05-25T01:17:04.123Z,52.28
2023-05-25T01:19:30.440Z,52.57
2023-05-25T01:21:56.745Z,52.61
2023-05-25T01:24:23.050Z,52.92
2023-05-25T01:26:49.341Z,53.09
2023-05-25T01:29:15.652Z,53.03
2023-05-25T01:31:42.052Z,53.54
2023-05-25T01:34:08.357Z,53.58
2023-05-25T01:36:34.668Z,53.70
2023-05-25T01:39:00.971Z,54.23
2023-05-25T01:41:27.387Z,53.82
2023-05-25T01:43:53.678Z,53.29
2023-05-25T01:46:20.030Z,53.36
2023-05-25T01:48:46.396Z,53.09
2023-05-25T01:51:12.695Z,52.12
2023-05-25T01:53:39.012Z,52.10
2023-05-25T01:56:05.352Z,52.20
2023-05-25T01:58:31.651Z,52.31
2023-05-25T02:00:58.008Z,51.56
2023-05-25T02:03:24.345Z,51.49
2023-05-25T02:05:50.673Z,51.51
2023-05-25T02:08:16.982Z,51.23
2023-05-25T02:10:43.298Z,51.27
2023-05-25T02:13:09.609Z,51.06
2023-05-25T02:15:35.956Z,51.10
2023-05-25T02:18:02.317Z,51.72
2023-05-25T02:20:28.730Z,50.71
2023-05-25T02:22:55.123Z,51.01
2023-05-25T02:25:21.424Z,50.38
2023-05-25T02:27:47.879Z,50.25
2023-05-25T02:30:14.195Z,50.41
2023-05-25T02:32:40.545Z,50.21
2023-05-25T02:35:06.904Z,50.43
2023-05-25T02:37:33.264Z,50.27
2023-05-25T02:39:59.566Z,50.68
2023-05-25T02:42:25.877Z,51.00
2023-05-25T02:44:52.188Z,50.87
2023-05-25T02:47:18.488Z,50.73
2023-05-25T02:49:44.803Z,50.83
2023-05-25T02:52:11.128Z,51.42
2023-05-25T02:54:37.464Z,51.87
2023-05-25T02:57:03.772Z,51.80
2023-05-25T02:59:30.071Z,51.46
2023-05-25T03:01:56.381Z,51.20
2023-05-25T03:04:22.671Z,50.88
2023-05-25T03:06:48.977Z,51.17
2023-05-25T03:09:15.290Z,50.87
2023-05-25T03:11:41.602Z,50.56
2023-05-25T03:14:07.904Z,50.17
2023-05-25T03:16:34.239Z,49.56
2023-05-25T03:19:00.594Z,50.00
2023-05-25T03:21:26.914Z,49.70
2023-05-25T03:23:53.226Z,49.54
2023-05-25T03:26:19.529Z,49.69
2023-05-25T03:28:45.844Z,49.69
2023-05-25T03:31:12.164Z,49.23
2023-05-25T03:33:38.490Z,49.08
2023-05-25T03:36:04.815Z,48.88
2023-05-25T03:38:31.110Z,48.64
2023-05-25T03:40:57.414Z,48.65
2023-05-25T03:43:23.710Z,48.77
2023-05-25T03:45:50.127Z,48.83
2023-05-25T03:48:16.509Z,48.95
2023-05-25T03:50:42.841Z,49.01
2023-05-25T03:53:09.146Z,49.38
2023-05-25T03:55:35.490Z,49.33
2023-05-25T03:58:01.788Z,49.27
2023-05-25T04:00:28.096Z,49.13
2023-05-25T04:02:54.501Z,48.83
2023-05-25T04:05:20.885Z,48.61
2023-05-25T04:07:47.220Z,48.86
2023-05-25T04:10:13.512Z,49.50
2023-05-25T04:12:39.821Z,49.00
2023-05-25T04:15:06.117Z,49.21
2023-05-25T04:17:32.449Z,49.10
2023-05-25T04:19:58.822Z,49.01
2023-05-25T04:22:25.216Z,48.78
2023-05-25T04:24:51.561Z,48.68
2023-05-25T04:27:17.897Z,48.99
2023-05-25T04:29:44.292Z,48.92
2023-05-25T04:32:10.619Z,48.89
2023-05-25T04:34:36.923Z,49.44
2023-05-25T04:37:03.252Z,49.42
2023-05-25T04:39:29.616Z,49.10
2023-05-25T04:41:55.928Z,48.87
2023-05-25T04:44:22.279Z,49.09
2023-05-25T04:46:48.629Z,49.32
2023-05-25T04:49:15.013Z,49.06
2023-05-25T04:51:41.394Z,48.75
2023-05-25T04:54:07.750Z,49.61
2023-05-25T04:56:34.100Z,48.90
2023-05-25T04:59:00.545Z,49.04
2023-05-25T05:01:26.919Z,48.80
2023-05-25T05:03:53.368Z,48.50
2023-05-25T05:06:19.814Z,48.22
2023-05-25T05:08:46.285Z,48.29
2023-05-25T05:11:12.632Z,48.29
2023-05-25T05:13:38.956Z,47.76
2023-05-25T05:16:05.289Z,48.04
2023-05-25T05:18:31.662Z,48.27
2023-05-25T05:20:58.387Z,47.59
2023-05-25T05:23:24.782Z,48.41
2023-05-25T05:25:51.156Z,48.35
2023-05-25T05:28:17.513Z,48.26
2023-05-25T05:30:43.807Z,48.71
2023-05-25T05:33:10.207Z,50.42
2023-05-25T05:35:36.669Z,50.45
2023-05-25T05:38:03.031Z,50.45
2023-05-25T05:40:29.351Z,51.20
2023-05-25T05:42:55.666Z,51.73
2023-05-25T05:45:21.989Z,52.16
2023-05-25T05:47:48.396Z,52.55
2023-05-25T05:50:14.767Z,52.91
2023-05-25T05:52:41.072Z,53.65
2023-05-25T05:55:07.414Z,53.37
2023-05-25T05:57:33.758Z,53.18
2023-05-25T06:00:00.104Z,53.49
2023-05-25T06:02:26.658Z,54.67
2023-05-25T06:04:53.043Z,55.95
2023-05-25T06:07:19.376Z,55.72
2023-05-25T06:09:45.685Z,55.60
2023-05-25T06:12:11.983Z,55.85
2023-05-25T06:14:38.308Z,55.42
2023-05-25T06:17:04.658Z,55.39
2023-05-25T06:19:31.026Z,56.15
2023-05-25T06:21:57.321Z,55.54
2023-05-25T06:24:23.635Z,56.98
2023-05-25T06:26:49.964Z,56.78
2023-05-25T06:29:17.275Z,57.04
2023-05-25T06:31:43.921Z,57.59
2023-05-25T06:34:10.293Z,57.54
2023-05-25T06:36:36.593Z,57.93
2023-05-25T06:39:02.905Z,58.14
2023-05-25T06:41:29.196Z,57.79
2023-05-25T06:43:55.520Z,58.10
2023-05-25T06:46:21.878Z,58.65
2023-05-25T06:48:48.216Z,58.24
2023-05-25T06:51:14.567Z,58.60
2023-05-25T06:53:40.902Z,57.74
2023-05-25T06:56:07.220Z,58.12
2023-05-25T06:58:33.561Z,58.44
2023-05-25T07:00:59.941Z,58.43
2023-05-25T07:03:26.294Z,58.30
2023-05-25T07:05:52.598Z,58.26
2023-05-25T07:08:18.907Z,58.73
2023-05-25T07:10:45.231Z,58.48
2023-05-25T07:13:11.567Z,58.43
2023-05-25T07:15:37.892Z,57.86
2023-05-25T07:18:04.620Z,58.20
2023-05-25T07:20:31.036Z,57.71
2023-05-25T07:22:57.384Z,58.00
2023-05-25T07:25:23.679Z,58.05
2023-05-25T07:27:51.188Z,59.08
2023-05-25T07:30:17.520Z,57.73
2023-05-25T07:32:43.854Z,57.67
2023-05-25T07:35:10.193Z,57.25
2023-05-25T07:37:36.523Z,56.42
2023-05-25T07:40:02.841Z,57.17
2023-05-25T07:42:29.144Z,56.55
2023-05-25T07:44:55.499Z,57.65
2023-05-25T07:47:21.874Z,57.06
2023-05-25T07:49:48.189Z,56.28
2023-05-25T07:52:14.502Z,56.82
2023-05-25T07:54:40.883Z,56.70
2023-05-25T07:57:07.217Z,55.74
2023-05-25T07:59:33.518Z,56.31
2023-05-25T08:01:59.856Z,56.46
2023-05-25T08:04:26.210Z,55.88
2023-05-25T08:06:52.556Z,56.11
2023-05-25T08:09:18.867Z,56.90
2023-05-25T08:11:45.212Z,57.75
2023-05-25T08:14:11.532Z,56.60
2023-05-25T08:16:37.853Z,55.68
2023-05-25T08:19:04.176Z,55.44
2023-05-25T08:21:31.369Z,56.59
2023-05-25T08:23:59.162Z,55.36
2023-05-25T08:26:38.364Z,55.34
2023-05-25T08:29:11.768Z,55.91
2023-05-25T08:31:38.273Z,55.86
2023-05-25T08:34:04.725Z,54.67
2023-05-25T08:36:31.011Z,55.01
2023-05-25T08:38:57.332Z,54.76
2023-05-25T08:41:23.652Z,54.93
2023-05-25T08:43:50.007Z,55.28
2023-05-25T08:46:16.317Z,54.84
2023-05-25T08:48:42.972Z,54.29
2023-05-25T08:51:10.858Z,54.08
2023-05-25T08:53:37.764Z,54.16
2023-05-25T08:56:04.098Z,54.62
2023-05-25T08:58:30.424Z,54.06
2023-05-25T09:00:56.717Z,54.25
2023-05-25T09:03:23.148Z,54.82
2023-05-25T09:05:49.476Z,53.58
2023-05-25T09:08:15.802Z,53.69
2023-05-25T09:10:42.122Z,54.33
2023-05-25T09:15:37.621Z,54.01
2023-05-25T09:18:05.319Z,53.72
2023-05-25T09:20:31.888Z,53.93
2023-05-25T09:22:58.260Z,54.15
2023-05-25T09:25:24.613Z,54.61
2023-05-25T09:27:50.918Z,53.93
2023-05-25T09:30:17.333Z,54.90
2023-05-25T09:32:43.759Z,54.52
2023-05-25T09:35:10.088Z,54.10
2023-05-25T09:37:36.542Z,54.06
2023-05-25T09:40:03.011Z,54.81
2023-05-25T09:42:29.357Z,54.13
2023-05-25T09:44:55.698Z,54.99
2023-05-25T09:47:22.046Z,54.92
2023-05-25T09:49:48.363Z,55.22
2023-05-25T09:52:14.662Z,54.50
2023-05-25T09:54:41.370Z,53.95
2023-05-25T09:57:08.195Z,54.25
2023-05-25T09:59:34.807Z,54.33
2023-05-25T10:02:01.180Z,54.60
2023-05-25T10:04:27.703Z,52.97
2023-05-25T10:06:54.024Z,54.05
2023-05-25T10:09:20.387Z,54.67
2023-05-25T10:11:46.734Z,53.38
2023-05-25T10:14:13.100Z,55.24
2023-05-25T10:16:39.461Z,55.71
2023-05-25T10:19:05.905Z,55.43
2023-05-25T10:21:32.234Z,53.74
2023-05-25T10:23:58.557Z,55.42
2023-05-25T10:26:24.893Z,55.08
2023-05-25T10:28:51.276Z,55.96
2023-05-25T10:31:17.764Z,55.43
2023-05-25T10:33:47.445Z,53.71
2023-05-25T10:36:17.207Z,52.99
2023-05-25T10:38:43.785Z,54.43
2023-05-25T10:41:10.129Z,52.97
2023-05-25T10:43:36.469Z,53.35
2023-05-25T10:46:02.801Z,54.29
2023-05-25T10:48:29.161Z,54.83
2023-05-25T10:50:55.495Z,53.90
2023-05-25T10:53:21.868Z,56.47
2023-05-25T10:55:48.208Z,53.83
2023-05-25T10:58:14.569Z,55.28
2023-05-25T11:00:41.001Z,55.98
2023-05-25T11:03:07.434Z,55.64
2023-05-25T11:05:33.782Z,55.46
2023-05-25T11:08:00.144Z,54.35
2023-05-25T11:10:26.446Z,54.82
2023-05-25T11:12:52.865Z,53.60
2023-05-25T11:15:19.201Z,55.69
2023-05-25T11:17:45.538Z,53.90
2023-05-25T11:20:11.894Z,53.38
2023-05-25T11:22:38.219Z,55.85
2023-05-25T11:25:04.548Z,54.07
2023-05-25T11:27:30.910Z,50.88
2023-05-25T11:29:57.226Z,51.21
2023-05-25T11:32:23.668Z,53.14
2023-05-25T11:34:50.031Z,53.78
2023-05-25T11:37:16.385Z,51.68
2023-05-25T11:39:42.710Z,53.43
2023-05-25T11:42:09.021Z,55.27
2023-05-25T11:44:35.321Z,52.16
2023-05-25T11:47:01.945Z,52.04
2023-05-25T11:49:28.441Z,51.99
2023-05-25T11:51:54.769Z,51.05
2023-05-25T11:54:21.104Z,50.72
2023-05-25T11:56:47.515Z,51.22
2023-05-25T11:59:13.811Z,48.29
2023-05-25T12:01:40.109Z,49.03
2023-05-25T12:04:06.518Z,50.89
2023-05-25T12:06:32.893Z,48.28
2023-05-25T12:08:59.233Z,50.27
2023-05-25T12:11:25.562Z,48.69
2023-05-25T12:13:51.884Z,51.20
2023-05-25T12:16:18.244Z,48.68
2023-05-25T12:18:44.569Z,48.81
2023-05-25T12:21:10.890Z,49.74
2023-05-25T12:23:37.235Z,49.82
2023-05-25T12:26:03.543Z,49.31
2023-05-25T12:28:30.266Z,49.69
2023-05-25T12:30:56.721Z,49.62
2023-05-25T12:33:23.050Z,48.89
2023-05-25T12:35:49.453Z,47.87
2023-05-25T12:38:15.827Z,49.57
2023-05-25T12:40:42.543Z,49.40
2023-05-25T12:43:09.114Z,47.98
2023-05-25T12:45:35.428Z,48.75
2023-05-25T12:48:02.467Z,48.47
2023-05-25T12:50:29.462Z,48.42
2023-05-25T12:52:55.976Z,47.59
2023-05-25T12:55:22.272Z,49.20
2023-05-25T12:57:48.618Z,47.09
2023-05-25T13:00:14.964Z,46.60
2023-05-25T13:02:41.284Z,48.21
2023-05-25T13:05:07.631Z,47.31
2023-05-25T13:07:33.992Z,47.97
2023-05-25T13:10:00.376Z,45.03
2023-05-25T13:12:26.941Z,46.62
2023-05-25T13:14:54.337Z,46.86
2023-05-25T13:17:20.768Z,43.97
2023-05-25T13:19:47.114Z,44.01
2023-05-25T13:22:13.394Z,44.63
2023-05-25T13:24:39.690Z,46.96
2023-05-25T13:27:05.985Z,44.49
2023-05-25T13:29:32.314Z,45.70
2023-05-25T13:31:58.663Z,44.62
2023-05-25T13:34:24.992Z,44.52
2023-05-25T13:36:51.333Z,46.71
2023-05-25T13:39:17.648Z,47.03
2023-05-25T13:41:43.964Z,45.78
2023-05-25T13:44:10.306Z,46.62
2023-05-25T13:46:36.658Z,46.73
2023-05-25T13:49:03.461Z,46.09
2023-05-25T13:51:29.948Z,45.67
2023-05-25T13:53:56.371Z,44.28
2023-05-25T13:56:22.794Z,46.27
2023-05-25T13:58:49.133Z,45.32
2023-05-25T14:01:15.508Z,45.60
2023-05-25T14:03:42.088Z,46.65
2023-05-25T14:06:08.494Z,45.54
2023-05-25T14:08:34.820Z,45.53
2023-05-25T14:11:01.117Z,43.94
2023-05-25T14:13:27.431Z,44.70
2023-05-25T14:15:53.756Z,44.30
2023-05-25T14:18:20.172Z,44.84
2023-05-25T14:20:46.561Z,43.62
2023-05-25T14:23:15.189Z,44.16
2023-05-25T14:25:43.113Z,43.35
2023-05-25T14:28:09.543Z,40.90
2023-05-25T14:30:36.016Z,42.15
2023-05-25T14:33:02.542Z,42.74
2023-05-25T14:35:28.895Z,41.00
2023-05-25T14:37:55.209Z,40.31
2023-05-25T14:40:21.549Z,40.22
2023-05-25T14:42:47.886Z,39.17
2023-05-25T14:45:15.988Z,40.70
2023-05-25T14:47:42.650Z,40.20
2023-05-25T14:50:08.990Z,39.52
2023-05-25T14:52:35.334Z,39.06
2023-05-25T14:55:01.648Z,38.20
2023-05-25T14:57:27.944Z,37.04
2023-05-25T14:59:54.369Z,36.67
2023-05-25T15:02:20.746Z,37.43
2023-05-25T15:04:47.136Z,37.90
2023-05-25T15:07:13.466Z,37.18
2023-05-25T15:09:39.854Z,37.18
2023-05-25T15:12:06.166Z,38.01
2023-05-25T15:14:32.449Z,37.88
2023-05-25T15:16:58.766Z,36.70
2023-05-25T15:19:25.098Z,36.24
2023-05-25T15:21:51.454Z,33.47
2023-05-25T15:24:17.758Z,33.24
2023-05-25T15:26:44.095Z,33.97
2023-05-25T15:29:10.450Z,33.00
2023-05-25T15:31:36.847Z,33.93
2023-05-25T15:34:03.288Z,32.96
2023-05-25T15:36:29.612Z,33.44
2023-05-25T15:38:55.917Z,33.23
2023-05-25T15:41:22.273Z,33.45
2023-05-25T15:43:48.588Z,31.09
2023-05-25T15:46:14.925Z,31.79
2023-05-25T15:48:41.305Z,32.64
2023-05-25T15:51:07.648Z,32.81
2023-05-25T15:53:33.967Z,31.04
2023-05-25T15:56:00.280Z,31.27
2023-05-25T15:58:26.602Z,31.29
2023-05-25T16:00:52.927Z,31.59
2023-05-25T16:03:19.308Z,31.87
2023-05-25T16:05:45.849Z,31.34
2023-05-25T16:08:12.427Z,31.96
2023-05-25T16:10:38.758Z,31.65
2023-05-25T16:13:05.113Z,31.22
2023-05-25T16:15:31.542Z,31.04
2023-05-25T16:17:57.905Z,30.96
2023-05-25T16:20:24.252Z,30.39
2023-05-25T16:22:50.566Z,30.60
2023-05-25T16:25:16.911Z,30.34
2023-05-25T16:27:43.384Z,29.89
2023-05-25T16:30:11.128Z,30.15
2023-05-25T16:32:39.564Z,29.88
2023-05-25T16:35:05.939Z,30.16
2023-05-25T16:37:32.240Z,30.36
2023-05-25T16:39:58.547Z,30.88
2023-05-25T16:42:24.898Z,31.03
2023-05-25T16:44:51.192Z,31.16
2023-05-25T16:47:17.503Z,31.43
2023-05-25T16:49:43.814Z,31.40
2023-05-25T16:52:10.141Z,31.33
2023-05-25T16:54:36.475Z,31.03
2023-05-25T16:57:02.768Z,31.62
2023-05-25T16:59:29.086Z,31.81
2023-05-25T17:01:55.577Z,31.48
2023-05-25T17:04:22.080Z,30.87
2023-05-25T17:06:48.435Z,30.64
2023-05-25T17:09:14.780Z,30.90
2023-05-25T17:11:41.122Z,31.18
2023-05-25T17:14:07.478Z,31.35
2023-05-25T17:16:33.937Z,31.60
2023-05-25T17:19:00.381Z,31.62
2023-05-25T17:21:26.708Z,32.13
2023-05-25T17:23:53.019Z,32.38
2023-05-25T17:26:19.371Z,32.51
2023-05-25T17:28:45.701Z,32.53
2023-05-25T17:31:12.036Z,33.29
2023-05-25T17:33:38.365Z,33.57
2023-05-25T17:36:04.731Z,33.97
2023-05-25T17:38:31.049Z,34.94
2023-05-25T17:40:57.374Z,35.15
2023-05-25T17:43:23.720Z,35.51
2023-05-25T17:45:50.081Z,35.89
2023-05-25T17:48:16.484Z,36.15
2023-05-25T17:50:42.925Z,36.66
2023-05-25T17:53:09.235Z,36.33
2023-05-25T17:55:35.577Z,36.90
2023-05-25T17:58:01.910Z,37.07
2023-05-25T18:00:28.324Z,37.17
2023-05-25T18:02:54.769Z,38.63
2023-05-25T18:05:21.245Z,38.66
2023-05-25T18:07:47.577Z,38.07
2023-05-25T18:10:13.937Z,38.62
2023-05-25T18:12:40.322Z,38.54
2023-05-25T18:15:06.624Z,38.53
2023-05-25T18:17:32.976Z,38.97
2023-05-25T18:19:59.411Z,38.53
2023-05-25T18:22:25.738Z,38.81
2023-05-25T18:24:52.052Z,39.06
2023-05-25T18:27:18.467Z,39.49
2023-05-25T18:29:44.776Z,39.39
2023-05-25T18:32:11.118Z,39.78
2023-05-25T18:34:37.459Z,39.79
2023-05-25T18:37:03.768Z,40.00
2023-05-25T18:39:30.079Z,39.80
2023-05-25T18:41:56.396Z,40.25
2023-05-25T18:44:22.736Z,40.66
2023-05-25T18:46:49.167Z,40.49
2023-05-25T18:49:15.533Z,41.14
2023-05-25T18:51:41.845Z,40.93
2023-05-25T18:54:08.132Z,41.52
2023-05-25T18:56:34.466Z,41.76
2023-05-25T18:59:00.795Z,42.05
2023-05-25T19:01:27.147Z,42.84
2023-05-25T19:03:55.400Z,43.43
2023-05-25T19:06:23.258Z,44.75
2023-05-25T19:08:49.638Z,45.60
2023-05-25T19:11:15.989Z,45.59
2023-05-25T19:13:42.310Z,46.75
2023-05-25T19:16:08.699Z,46.37
2023-05-25T19:18:35.113Z,48.56
2023-05-25T19:21:01.563Z,48.42
2023-05-25T19:23:27.890Z,49.53
2023-05-25T19:25:54.252Z,48.98
2023-05-25T19:28:20.578Z,50.16
2023-05-25T19:30:46.898Z,50.35
2023-05-25T19:33:13.298Z,50.40
2023-05-25T19:35:39.727Z,51.25
2023-05-25T19:38:06.077Z,51.46
2023-05-25T19:40:32.423Z,52.25
2023-05-25T19:42:58.729Z,52.48
2023-05-25T19:45:25.037Z,52.37
2023-05-25T19:47:51.398Z,52.79
2023-05-25T19:50:17.734Z,52.46
2023-05-25T19:52:44.072Z,52.41
2023-05-25T19:55:10.391Z,52.60
2023-05-25T19:57:36.734Z,53.28
2023-05-25T20:00:03.771Z,53.23
2023-05-25T20:02:31.141Z,53.14
2023-05-25T20:04:57.529Z,52.91
2023-05-25T20:07:23.871Z,53.29
2023-05-25T20:09:50.267Z,53.52
2023-05-25T20:12:16.609Z,54.68
2023-05-25T20:14:43.085Z,55.18
2023-05-25T20:17:09.460Z,55.12
2023-05-25T20:19:35.874Z,56.01
2023-05-25T20:22:02.215Z,54.92
2023-05-25T20:24:28.556Z,54.80
2023-05-25T20:26:54.917Z,54.97
2023-05-25T20:29:21.260Z,54.12
2023-05-25T20:31:47.708Z,53.96
2023-05-25T20:34:14.128Z,53.15
2023-05-25T20:36:40.505Z,54.31
2023-05-25T20:39:06.927Z,54.20
2023-05-25T20:41:33.244Z,55.06
2023-05-25T20:43:59.591Z,56.06
2023-05-25T20:46:25.941Z,56.00
2023-05-25T20:48:52.317Z,56.73
2023-05-25T20:51:18.773Z,55.98
2023-05-25T20:53:45.058Z,56.06
2023-05-25T20:56:11.368Z,55.28
2023-05-25T20:58:37.726Z,55.33
2023-05-25T21:01:04.048Z,55.92
2023-05-25T21:03:30.490Z,55.56
2023-05-25T21:05:57.058Z,54.66
2023-05-25T21:08:23.528Z,54.49
2023-05-25T21:10:49.886Z,54.77
2023-05-25T21:13:16.213Z,54.35
2023-05-25T21:15:42.669Z,53.91
2023-05-25T21:18:09.154Z,54.61
2023-05-25T21:20:35.565Z,53.33
2023-05-25T21:23:01.947Z,53.43
2023-05-25T21:25:28.235Z,53.23
2023-05-25T21:27:56.876Z,52.60
2023-05-25T21:30:23.574Z,52.14
2023-05-25T21:32:49.916Z,52.19
2023-05-25T21:35:16.301Z,52.23
2023-05-25T21:37:42.632Z,51.95
2023-05-25T21:40:08.951Z,52.05
2023-05-25T21:42:35.262Z,51.85
2023-05-25T21:45:01.581Z,51.76
2023-05-25T21:47:27.950Z,52.14
2023-05-25T21:49:54.482Z,51.80
2023-05-25T21:52:20.791Z,51.99
2023-05-25T21:54:47.178Z,52.58
2023-05-25T21:57:13.525Z,52.61
2023-05-25T21:59:39.832Z,52.58
2023-05-25T22:02:06.217Z,53.19
2023-05-25T22:04:32.718Z,52.99
2023-05-25T22:06:59.073Z,53.04
2023-05-25T22:09:25.390Z,52.06
2023-05-25T22:11:51.736Z,52.08
2023-05-25T22:14:18.067Z,51.68
2023-05-25T22:16:44.390Z,51.70
2023-05-25T22:19:10.757Z,51.23
2023-05-25T22:21:37.103Z,51.70
2023-05-25T22:24:03.439Z,51.23
2023-05-25T22:26:29.752Z,51.03
2023-05-25T22:28:56.163Z,51.10
2023-05-25T22:31:22.580Z,51.54
2023-05-25T22:33:48.983Z,51.21
2023-05-25T22:36:15.328Z,51.11
2023-05-25T22:38:41.652Z,51.44
2023-05-25T22:41:07.979Z,51.56
2023-05-25T22:43:34.412Z,51.77
2023-05-25T22:46:00.857Z,51.76
2023-05-25T22:48:27.241Z,51.84
2023-05-25T22:50:53.557Z,51.88
2023-05-25T22:53:20.133Z,52.24
2023-05-25T22:55:47.529Z,52.01
2023-05-25T22:58:13.994Z,52.06
2023-05-25T23:00:40.348Z,52.19
2023-05-25T23:03:06.697Z,52.29
2023-05-25T23:05:33.101Z,52.31
2023-05-25T23:07:59.604Z,53.14
2023-05-25T23:10:25.942Z,53.56
2023-05-25T23:12:52.266Z,53.85
2023-05-25T23:15:18.665Z,53.16
2023-05-25T23:17:45.027Z,53.09
2023-05-25T23:20:11.357Z,52.69
2023-05-25T23:22:37.680Z,52.23
2023-05-25T23:25:04.010Z,52.46
2023-05-25T23:27:30.335Z,52.63
2023-05-25T23:29:56.690Z,52.42
2023-05-25T23:32:23.044Z,52.24
2023-05-25T23:34:49.370Z,52.81
2023-05-25T23:37:15.741Z,53.22
2023-05-25T23:39:42.061Z,53.61
2023-05-25T23:42:08.424Z,53.61
2023-05-25T23:44:34.853Z,53.13
2023-05-25T23:47:01.164Z,53.35
2023-05-25T23:49:27.489Z,53.11
2023-05-25T23:51:53.826Z,53.46
2023-05-25T23:54:20.134Z,53.42
2023-05-25T23:56:46.431Z,53.11
2023-05-25T23:59:12.752Z,52.77
